Time;durP1;ratioP1;P1;durP2;ratioP2;P2;SDS_P1;SDS_P2;PMS_P1;PMS_P2;Temp;Humidity;BMP_temperature;BMP_pressure;BME280_temperature;BME280_humidity;BME280_pressure;Samples;Min_cycle;Max_cycle;Signal;HPM_P1;HPM_P2
2021/05/16 00:01:51;;;;;;;14.18;4.47;;;;;;;;;;4925888;29;20048;-61
2021/05/16 00:04:18;;;;;;;11.75;4.22;;;;;;;;;;4930559;29;20047;-58
2021/05/16 00:06:44;;;;;;;11.18;4.00;;;;;;;;;;4911213;29;20040;-58
2021/05/16 00:09:10;;;;;;;12.65;4.00;;;;;;;;;;4928054;29;20047;-59
2021/05/16 00:11:36;;;;;;;11.90;4.07;;;;;;;;;;4926137;29;20039;-61
2021/05/16 00:14:03;;;;;;;10.38;4.15;;;;;;;;;;4946652;29;20075;-61
2021/05/16 00:16:29;;;;;;;10.75;4.35;;;;;;;;;;4925932;29;20036;-57
2021/05/16 00:18:55;;;;;;;14.40;4.43;;;;;;;;;;4929736;29;20043;-60
2021/05/16 00:21:22;;;;;;;8.88;3.88;;;;;;;;;;4928569;29;20247;-63
2021/05/16 00:23:48;;;;;;;13.70;4.07;;;;;;;;;;4926763;29;20032;-56
2021/05/16 00:26:14;;;;;;;9.52;3.92;;;;;;;;;;4929086;29;20060;-59
2021/05/16 00:28:41;;;;;;;14.10;4.38;;;;;;;;;;4923795;29;20053;-61
2021/05/16 00:31:07;;;;;;;14.90;4.60;;;;;;;;;;4929911;29;20051;-62
2021/05/16 00:33:33;;;;;;;10.70;3.97;;;;;;;;;;4924758;29;20051;-58
2021/05/16 00:35:59;;;;;;;13.10;4.22;;;;;;;;;;4943097;29;20040;-52
2021/05/16 00:38:26;;;;;;;11.80;3.83;;;;;;;;;;4924154;29;20058;-59
2021/05/16 00:40:52;;;;;;;15.45;4.57;;;;;;;;;;4929093;28;20051;-58
2021/05/16 00:43:18;;;;;;;11.30;3.85;;;;;;;;;;4924213;29;20058;-58
2021/05/16 00:45:47;;;;;;;13.02;4.43;;;;;;;;;;4944638;29;20042;-59
2021/05/16 00:48:13;;;;;;;;;;;;;;;;;;4943471;28;20051;-60
2021/05/16 00:50:40;;;;;;;12.68;3.83;;;;;;;;;;4944600;29;19930;-55
2021/05/16 00:53:06;;;;;;;14.73;4.32;;;;;;;;;;4923925;29;20147;-59
2021/05/16 00:55:33;;;;;;;13.40;4.00;;;;;;;;;;4929143;29;20130;-59
2021/05/16 00:57:59;;;;;;;15.57;4.60;;;;;;;;;;4923809;28;20059;-54
2021/05/16 01:00:26;;;;;;;17.20;4.20;;;;;;;;;;4929194;29;20039;-57
2021/05/16 01:02:52;;;;;;;10.95;4.20;;;;;;;;;;4930003;29;20046;-57
2021/05/16 01:05:18;;;;;;;14.25;4.70;;;;;;;;;;4923335;29;20039;-57
2021/05/16 01:07:46;;;;;;;12.68;3.97;;;;;;;;;;4928590;28;20094;-53
2021/05/16 01:10:12;;;;;;;15.65;5.00;;;;;;;;;;4942256;28;20068;-56
2021/05/16 01:12:43;;;;;;;12.30;4.68;;;;;;;;;;4927225;29;20064;-55
2021/05/16 01:15:10;;;;;;;14.38;4.70;;;;;;;;;;4924555;29;20055;-59
2021/05/16 01:17:36;;;;;;;13.18;4.38;;;;;;;;;;4945284;28;20040;-56
2021/05/16 01:20:03;;;;;;;11.30;4.25;;;;;;;;;;4924916;29;20075;-56
2021/05/16 01:22:30;;;;;;;12.43;3.92;;;;;;;;;;4929011;29;20051;-60
2021/05/16 01:24:56;;;;;;;16.23;4.35;;;;;;;;;;4924015;29;20039;-57
2021/05/16 01:27:24;;;;;;;29.13;4.65;;;;;;;;;;4925026;29;20048;-58
2021/05/16 01:29:50;;;;;;;18.77;4.93;;;;;;;;;;4903263;29;20050;-58
2021/05/16 01:32:21;;;;;;;25.33;4.32;;;;;;;;;;4930565;29;20036;-60
2021/05/16 01:34:48;;;;;;;13.73;4.35;;;;;;;;;;4924340;29;20043;-58
2021/05/16 01:37:14;;;;;;;11.63;4.82;;;;;;;;;;4928468;29;20073;-60
2021/05/16 01:39:41;;;;;;;15.82;4.55;;;;;;;;;;4942832;28;20110;-56
2021/05/16 01:42:08;;;;;;;19.98;5.28;;;;;;;;;;4927596;29;20055;-58
2021/05/16 01:44:34;;;;;;;14.02;3.42;;;;;;;;;;4928413;29;20047;-58
2021/05/16 01:47:02;;;;;;;24.35;4.28;;;;;;;;;;4924926;29;20099;-55
2021/05/16 01:49:28;;;;;;;19.85;4.38;;;;;;;;;;4928651;29;20091;-61
2021/05/16 01:51:54;;;;;;;14.00;3.95;;;;;;;;;;4943346;29;20043;-59
2021/05/16 01:54:20;;;;;;;18.42;3.85;;;;;;;;;;4927852;29;20072;-61
2021/05/16 01:56:47;;;;;;;19.20;3.72;;;;;;;;;;4925934;29;20047;-58
2021/05/16 01:59:13;;;;;;;16.73;4.40;;;;;;;;;;4928393;29;20044;-57
2021/05/16 02:01:39;;;;;;;13.75;3.70;;;;;;;;;;4921217;29;20066;-57
2021/05/16 02:04:05;;;;;;;20.00;4.35;;;;;;;;;;4927585;29;20039;-63
2021/05/16 02:06:31;;;;;;;19.98;4.10;;;;;;;;;;4923287;29;20043;-61
2021/05/16 02:08:58;;;;;;;20.05;3.53;;;;;;;;;;4928302;29;20043;-54
2021/05/16 02:11:24;;;;;;;16.73;3.78;;;;;;;;;;4942006;28;20055;-53
2021/05/16 02:13:51;;;;;;;20.13;4.45;;;;;;;;;;4944009;29;20057;-58
2021/05/16 02:16:18;;;;;;;20.40;4.25;;;;;;;;;;4923966;29;20049;-59
2021/05/16 02:18:45;;;;;;;19.15;4.93;;;;;;;;;;4927654;29;20059;-60
2021/05/16 02:21:11;;;;;;;21.58;4.90;;;;;;;;;;4923708;28;20137;-60
2021/05/16 02:23:39;;;;;;;19.75;4.88;;;;;;;;;;4926299;29;20054;-56
2021/05/16 02:26:05;;;;;;;17.23;4.65;;;;;;;;;;4924472;29;20079;-61
2021/05/16 02:28:31;;;;;;;17.23;4.40;;;;;;;;;;4942174;29;20039;-59
2021/05/16 02:30:58;;;;;;;20.48;4.60;;;;;;;;;;4945317;29;20130;-58
2021/05/16 02:33:24;;;;;;;19.60;4.38;;;;;;;;;;4924044;29;20040;-60
2021/05/16 02:35:50;;;;;;;21.85;5.20;;;;;;;;;;4944964;29;20102;-58
2021/05/16 02:38:16;;;;;;;19.83;4.72;;;;;;;;;;4923507;29;20095;-56
2021/05/16 02:40:42;;;;;;;22.33;5.90;;;;;;;;;;4928866;29;20047;-54
2021/05/16 02:43:08;;;;;;;25.73;5.43;;;;;;;;;;4924759;29;20043;-55
2021/05/16 02:45:34;;;;;;;18.20;5.25;;;;;;;;;;4926252;29;20036;-55
2021/05/16 02:48:00;;;;;;;20.45;5.22;;;;;;;;;;4939993;29;20114;-59
2021/05/16 02:50:26;;;;;;;30.45;5.10;;;;;;;;;;4944297;29;20057;-63
2021/05/16 02:52:52;;;;;;;20.27;5.03;;;;;;;;;;4935063;28;20047;-55
2021/05/16 02:55:22;;;;;;;19.20;4.97;;;;;;;;;;4942816;28;20039;-59
2021/05/16 02:57:48;;;;;;;24.48;5.65;;;;;;;;;;4922733;29;20039;-55
2021/05/16 03:03:25;;;;;;;19.70;4.70;;;;;;;;;;4924935;23;20036;-53
2021/05/16 03:05:51;;;;;;;24.50;4.68;;;;;;;;;;4904250;29;20096;-60
2021/05/16 03:08:17;;;;;;;22.33;5.07;;;;;;;;;;4905977;29;20056;-61
2021/05/16 03:10:43;;;;;;;19.77;4.10;;;;;;;;;;4900751;29;20052;-56
2021/05/16 03:13:10;;;;;;;17.30;4.03;;;;;;;;;;4904999;29;20028;-63
2021/05/16 03:15:36;;;;;;;33.00;4.82;;;;;;;;;;4915378;29;20028;-65
2021/05/16 03:18:02;;;;;;;18.85;3.97;;;;;;;;;;4905005;29;20032;-54
2021/05/16 03:20:29;;;;;;;30.40;4.80;;;;;;;;;;4915061;29;20151;-64
2021/05/16 03:23:10;;;;;;;20.63;3.85;;;;;;;;;;4906781;29;20044;-62
2021/05/16 03:25:36;;;;;;;22.92;4.40;;;;;;;;;;4897863;29;20059;-59
2021/05/16 03:28:03;;;;;;;25.77;5.15;;;;;;;;;;4908091;29;20060;-62
2021/05/16 03:30:29;;;;;;;30.08;4.90;;;;;;;;;;4905349;29;20471;-63
2021/05/16 03:32:58;;;;;;;21.02;4.50;;;;;;;;;;4899642;29;20075;-62
2021/05/16 03:35:24;;;;;;;20.48;4.70;;;;;;;;;;4903882;29;20139;-65
2021/05/16 03:37:51;;;;;;;24.73;5.00;;;;;;;;;;4900996;29;20052;-58
2021/05/16 03:40:17;;;;;;;20.85;4.55;;;;;;;;;;4906052;29;20068;-62
2021/05/16 03:42:46;;;;;;;22.45;5.05;;;;;;;;;;4897577;29;20037;-65
2021/05/16 03:45:12;;;;;;;18.27;4.13;;;;;;;;;;4901899;29;20112;-60
2021/05/16 03:47:39;;;;;;;23.65;4.45;;;;;;;;;;4900032;29;20095;-64
2021/05/16 03:50:06;;;;;;;22.15;4.43;;;;;;;;;;4905902;29;20044;-66
2021/05/16 03:52:35;;;;;;;15.70;3.90;;;;;;;;;;4902624;29;20057;-64
2021/05/16 03:55:02;;;;;;;17.23;4.07;;;;;;;;;;4899069;29;20043;-62
2021/05/16 03:57:28;;;;;;;23.42;4.22;;;;;;;;;;4919513;29;20067;-62
2021/05/16 03:59:54;;;;;;;18.73;4.25;;;;;;;;;;4898556;29;20060;-63
2021/05/16 04:02:20;;;;;;;16.88;4.82;;;;;;;;;;4924914;29;20067;-66
2021/05/16 04:04:46;;;;;;;18.05;4.60;;;;;;;;;;4918548;29;20044;-60
2021/05/16 04:07:12;;;;;;;20.27;5.18;;;;;;;;;;4897177;29;20040;-66
2021/05/16 04:09:38;;;;;;;19.00;4.43;;;;;;;;;;4900846;29;20053;-63
2021/05/16 04:12:06;;;;;;;26.17;5.18;;;;;;;;;;4891413;29;20064;-62
2021/05/16 04:14:32;;;;;;;21.58;5.07;;;;;;;;;;4906741;29;20040;-66
2021/05/16 04:16:58;;;;;;;25.05;4.88;;;;;;;;;;4891503;29;20036;-62
2021/05/16 04:19:24;;;;;;;29.02;5.32;;;;;;;;;;4901868;29;20045;-62
2021/05/16 04:21:50;;;;;;;20.10;5.00;;;;;;;;;;4894881;29;20053;-60
2021/05/16 04:24:16;;;;;;;24.92;5.35;;;;;;;;;;4909712;29;20043;-57
2021/05/16 04:26:42;;;;;;;19.70;5.22;;;;;;;;;;4910112;29;20043;-58
2021/05/16 04:29:09;;;;;;;23.35;4.68;;;;;;;;;;4921007;29;20036;-56
2021/05/16 04:31:35;;;;;;;26.95;4.90;;;;;;;;;;4944698;29;20096;-56
2021/05/16 04:34:01;;;;;;;23.65;5.43;;;;;;;;;;4912553;29;20051;-62
2021/05/16 04:36:27;;;;;;;23.27;4.95;;;;;;;;;;4911803;29;20048;-58
2021/05/16 04:38:54;;;;;;;28.65;5.10;;;;;;;;;;4928059;29;20051;-62
2021/05/16 04:41:20;;;;;;;26.17;5.38;;;;;;;;;;4912720;29;20051;-66
2021/05/16 04:43:48;;;;;;;16.58;4.55;;;;;;;;;;4909169;29;20043;-60
2021/05/16 04:46:18;;;;;;;21.33;5.40;;;;;;;;;;4912498;29;20099;-64
2021/05/16 04:48:44;;;;;;;19.95;4.72;;;;;;;;;;4918467;29;20056;-62
2021/05/16 04:51:10;;;;;;;21.70;4.78;;;;;;;;;;4932101;29;20055;-63
2021/05/16 04:53:37;;;;;;;23.58;5.00;;;;;;;;;;4908901;29;20122;-64
2021/05/16 04:56:04;;;;;;;24.42;4.82;;;;;;;;;;4912648;29;20036;-65
2021/05/16 04:58:30;;;;;;;16.92;5.10;;;;;;;;;;4909737;29;20032;-62
2021/05/16 05:00:56;;;;;;;28.33;5.18;;;;;;;;;;4928163;29;20044;-64
2021/05/16 05:03:24;;;;;;;26.27;5.38;;;;;;;;;;4913330;29;20087;-66
2021/05/16 05:05:51;;;;;;;21.50;4.80;;;;;;;;;;4911816;29;20063;-65
2021/05/16 05:08:17;;;;;;;22.63;4.85;;;;;;;;;;4909679;29;20044;-62
2021/05/16 05:10:43;;;;;;;26.02;5.03;;;;;;;;;;4912296;29;20054;-63
2021/05/16 05:13:12;;;;;;;17.05;4.35;;;;;;;;;;4910666;29;20044;-65
2021/05/16 05:15:38;;;;;;;24.65;5.55;;;;;;;;;;4926951;29;20035;-66
2021/05/16 05:18:04;;;;;;;30.30;5.90;;;;;;;;;;4930290;29;20047;-67
2021/05/16 05:20:32;;;;;;;27.55;5.68;;;;;;;;;;4912163;29;20044;-64
2021/05/16 05:23:07;;;;;;;26.02;5.35;;;;;;;;;;4912715;29;20028;-62
2021/05/16 05:25:33;;;;;;;30.02;5.63;;;;;;;;;;4900532;29;20148;-65
2021/05/16 05:27:59;;;;;;;23.05;5.07;;;;;;;;;;4913344;29;20052;-60
2021/05/16 05:30:25;;;;;;;22.90;5.57;;;;;;;;;;4907954;29;20175;-66
2021/05/16 05:32:52;;;;;;;18.00;4.93;;;;;;;;;;4911860;29;20039;-63
2021/05/16 05:35:18;;;;;;;25.75;6.03;;;;;;;;;;4916430;29;20042;-63
2021/05/16 05:37:46;;;;;;;23.63;5.57;;;;;;;;;;4949169;29;20044;-67
2021/05/16 05:40:12;;;;;;;28.02;6.03;;;;;;;;;;4927123;29;20044;-60
2021/05/16 05:42:40;;;;;;;18.40;5.60;;;;;;;;;;4930185;29;20036;-61
2021/05/16 05:45:08;;;;;;;38.05;7.55;;;;;;;;;;4926386;29;20088;-66
2021/05/16 05:47:34;;;;;;;29.00;7.53;;;;;;;;;;4930078;29;20039;-64
2021/05/16 05:50:00;;;;;;;29.20;5.72;;;;;;;;;;4924840;29;20048;-65
2021/05/16 05:52:27;;;;;;;23.48;5.53;;;;;;;;;;4916264;29;20043;-62
2021/05/16 05:54:54;;;;;;;27.88;5.60;;;;;;;;;;4902471;29;20047;-63
2021/05/16 05:57:20;;;;;;;25.77;5.75;;;;;;;;;;4907597;29;20114;-58
2021/05/16 05:59:46;;;;;;;24.40;5.65;;;;;;;;;;4908683;29;20074;-57
2021/05/16 06:02:12;;;;;;;26.95;7.18;;;;;;;;;;4924525;29;20047;-55
2021/05/16 06:04:38;;;;;;;20.42;6.15;;;;;;;;;;4920759;29;20124;-60
2021/05/16 06:07:05;;;;;;;20.40;6.00;;;;;;;;;;4904378;29;20064;-59
2021/05/16 06:09:32;;;;;;;23.17;6.07;;;;;;;;;;4904538;29;20047;-58
2021/05/16 06:12:00;;;;;;;22.25;6.68;;;;;;;;;;4902216;29;20045;-60
2021/05/16 06:14:26;;;;;;;16.67;5.67;;;;;;;;;;4904989;29;20057;-56
2021/05/16 06:16:52;;;;;;;32.95;6.93;;;;;;;;;;4891282;29;20306;-54
2021/05/16 06:19:18;;;;;;;21.55;5.60;;;;;;;;;;4895550;29;20048;-60
2021/05/16 06:21:44;;;;;;;25.13;6.15;;;;;;;;;;4902329;29;20058;-59
2021/05/16 06:24:11;;;;;;;22.77;5.50;;;;;;;;;;4905731;29;20040;-59
2021/05/16 06:26:39;;;;;;;22.00;5.50;;;;;;;;;;4899582;29;20114;-58
2021/05/16 06:29:07;;;;;;;20.95;4.45;;;;;;;;;;4902979;29;20048;-57
2021/05/16 06:31:33;;;;;;;23.08;6.05;;;;;;;;;;4904561;29;20115;-57
2021/05/16 06:34:02;;;;;;;26.77;5.78;;;;;;;;;;4906762;29;20075;-58
2021/05/16 06:36:28;;;;;;;24.50;5.55;;;;;;;;;;4904494;29;20054;-61
2021/05/16 06:38:54;;;;;;;15.18;4.93;;;;;;;;;;4902099;29;20121;-53
2021/05/16 06:41:21;;;;;;;22.55;5.03;;;;;;;;;;4907714;29;20044;-57
2021/05/16 06:43:49;;;;;;;20.42;4.85;;;;;;;;;;4909206;29;20044;-57
2021/05/16 06:46:16;;;;;;;18.98;4.47;;;;;;;;;;4920081;29;20051;-59
2021/05/16 06:48:42;;;;;;;20.50;4.40;;;;;;;;;;4910455;29;20040;-55
2021/05/16 06:51:09;;;;;;;17.30;4.45;;;;;;;;;;4906388;29;20067;-57
2021/05/16 06:53:37;;;;;;;26.48;5.68;;;;;;;;;;4901891;29;20059;-55
2021/05/16 06:56:03;;;;;;;18.73;5.23;;;;;;;;;;4905162;29;20050;-60
2021/05/16 06:58:29;;;;;;;26.10;8.45;;;;;;;;;;4919482;29;20063;-61
2021/05/16 07:00:55;;;;;;;32.80;5.97;;;;;;;;;;4924633;29;20096;-55
2021/05/16 07:03:22;;;;;;;21.58;5.80;;;;;;;;;;4916550;29;20043;-60
2021/05/16 07:05:48;;;;;;;25.92;5.68;;;;;;;;;;4937876;29;20044;-57
2021/05/16 07:08:14;;;;;;;21.70;5.50;;;;;;;;;;4918915;28;20095;-55
2021/05/16 07:10:40;;;;;;;18.83;5.97;;;;;;;;;;4923714;29;20147;-59
2021/05/16 07:13:06;;;;;;;21.35;5.70;;;;;;;;;;4937856;28;20072;-59
2021/05/16 07:15:33;;;;;;;19.27;5.50;;;;;;;;;;4920661;29;20044;-59
2021/05/16 07:17:59;;;;;;;18.40;4.85;;;;;;;;;;4925488;29;20047;-60
2021/05/16 07:20:26;;;;;;;23.60;5.90;;;;;;;;;;4938610;28;20035;-54
2021/05/16 07:22:52;;;;;;;20.23;5.20;;;;;;;;;;4921393;29;20055;-56
2021/05/16 07:25:18;;;;;;;31.25;5.95;;;;;;;;;;4920573;29;20160;-57
2021/05/16 07:27:44;;;;;;;24.80;6.70;;;;;;;;;;4930138;29;20047;-56
2021/05/16 07:30:10;;;;;;;17.80;5.03;;;;;;;;;;4917900;29;20051;-64
2021/05/16 07:32:38;;;;;;;20.85;5.22;;;;;;;;;;4943709;29;20044;-52
2021/05/16 07:35:04;;;;;;;22.92;4.40;;;;;;;;;;4929006;29;20055;-63
2021/05/16 07:37:31;;;;;;;22.50;5.15;;;;;;;;;;4923259;29;20075;-63
2021/05/16 07:39:58;;;;;;;24.95;5.22;;;;;;;;;;4923109;28;20130;-59
2021/05/16 07:42:25;;;;;;;25.88;4.45;;;;;;;;;;4921732;29;20058;-64
2021/05/16 07:44:51;;;;;;;24.63;5.20;;;;;;;;;;4919340;29;20060;-62
2021/05/16 07:47:18;;;;;;;34.80;7.65;;;;;;;;;;4923446;29;20047;-60
2021/05/16 07:49:46;;;;;;;20.77;5.28;;;;;;;;;;4921320;28;20047;-61
2021/05/16 07:52:13;;;;;;;19.50;6.07;;;;;;;;;;4922005;29;20054;-63
2021/05/16 07:54:40;;;;;;;18.95;5.53;;;;;;;;;;4910269;28;20066;-59
2021/05/16 07:57:08;;;;;;;24.77;6.30;;;;;;;;;;4923114;29;20047;-54
2021/05/16 07:59:34;;;;;;;25.95;6.57;;;;;;;;;;4922206;29;20058;-62
2021/05/16 08:02:00;;;;;;;27.77;6.65;;;;;;;;;;4921239;29;20099;-65
2021/05/16 08:04:26;;;;;;;21.40;5.95;;;;;;;;;;4907372;29;20104;-61
2021/05/16 08:06:52;;;;;;;21.95;6.05;;;;;;;;;;4900857;29;20443;-57
2021/05/16 08:09:18;;;;;;;25.35;6.75;;;;;;;;;;4901745;29;20036;-59
2021/05/16 08:11:45;;;;;;;22.02;7.28;;;;;;;;;;4904526;29;20056;-62
2021/05/16 08:14:11;;;;;;;26.75;6.40;;;;;;;;;;4909109;29;20043;-65
2021/05/16 08:16:37;;;;;;;28.05;6.70;;;;;;;;;;4912173;29;20040;-63
2021/05/16 08:19:03;;;;;;;26.10;7.50;;;;;;;;;;4921858;29;20051;-65
2021/05/16 08:21:29;;;;;;;19.95;6.50;;;;;;;;;;4891532;29;20058;-57
2021/05/16 08:23:57;;;;;;;25.15;7.80;;;;;;;;;;4912074;29;20048;-63
2021/05/16 08:26:23;;;;;;;24.08;7.22;;;;;;;;;;4904123;29;20123;-61
2021/05/16 08:28:50;;;;;;;27.05;6.60;;;;;;;;;;4915174;29;20044;-58
2021/05/16 08:31:18;;;;;;;23.75;7.25;;;;;;;;;;4902929;29;20040;-61
2021/05/16 08:33:44;;;;;;;21.83;7.53;;;;;;;;;;4909529;29;20029;-60
2021/05/16 08:36:10;;;;;;;28.10;6.32;;;;;;;;;;4911304;29;20047;-59
2021/05/16 08:38:36;;;;;;;22.98;5.95;;;;;;;;;;4906928;29;20058;-59
2021/05/16 08:41:02;;;;;;;20.13;5.60;;;;;;;;;;4920833;29;20047;-64
2021/05/16 08:43:30;;;;;;;21.48;5.60;;;;;;;;;;4925933;29;20052;-60
2021/05/16 08:45:57;;;;;;;20.20;5.55;;;;;;;;;;4930395;29;20051;-62
2021/05/16 08:48:29;;;;;;;25.17;6.43;;;;;;;;;;4905868;29;20046;-61
2021/05/16 08:50:55;;;;;;;23.33;6.30;;;;;;;;;;4909846;29;20050;-60
2021/05/16 08:53:23;;;;;;;26.10;5.05;;;;;;;;;;4909323;29;20036;-61
2021/05/16 08:55:49;;;;;;;24.35;5.70;;;;;;;;;;4911189;29;20091;-57
2021/05/16 08:58:15;;;;;;;19.55;5.75;;;;;;;;;;4919444;29;20505;-60
2021/05/16 09:00:42;;;;;;;25.63;5.90;;;;;;;;;;4931666;29;20106;-60
2021/05/16 09:03:19;;;;;;;17.02;5.47;;;;;;;;;;4920867;29;20040;-60
2021/05/16 09:05:45;;;;;;;19.88;4.47;;;;;;;;;;4929766;29;20036;-65
2021/05/16 09:08:12;;;;;;;22.92;5.50;;;;;;;;;;4910015;29;20060;-58
2021/05/16 09:10:41;;;;;;;19.50;5.20;;;;;;;;;;4911972;29;20044;-61
2021/05/16 09:13:12;;;;;;;19.92;6.47;;;;;;;;;;4910204;29;20095;-60
2021/05/16 09:15:38;;;;;;;25.17;7.20;;;;;;;;;;4927381;28;20044;-64
2021/05/16 09:18:04;;;;;;;16.58;5.68;;;;;;;;;;4924487;28;20046;-59
2021/05/16 09:20:31;;;;;;;22.77;7.13;;;;;;;;;;4945159;29;20047;-60
2021/05/16 09:22:58;;;;;;;24.98;6.88;;;;;;;;;;4927866;28;20051;-60
2021/05/16 09:25:25;;;;;;;21.75;6.00;;;;;;;;;;4902274;29;20037;-60
2021/05/16 09:27:52;;;;;;;17.23;4.55;;;;;;;;;;4890861;29;20036;-61
2021/05/16 09:30:32;;;;;;;16.13;4.85;;;;;;;;;;4916513;29;20063;-61
2021/05/16 09:33:00;;;;;;;23.80;5.43;;;;;;;;;;4928187;29;20043;-59
2021/05/16 09:35:31;;;;;;;26.92;6.28;;;;;;;;;;4925830;29;20145;-59
2021/05/16 09:37:58;;;;;;;23.15;5.55;;;;;;;;;;4928198;29;20047;-65
2021/05/16 09:40:25;;;;;;;20.27;5.32;;;;;;;;;;4919938;29;20064;-58
2021/05/16 09:43:07;;;;;;;16.00;5.00;;;;;;;;;;4909538;29;20047;-59
2021/05/16 09:45:41;;;;;;;20.08;5.60;;;;;;;;;;4906624;29;20055;-62
2021/05/16 09:48:16;;;;;;;20.65;5.68;;;;;;;;;;4909019;29;20043;-60
2021/05/16 09:50:43;;;;;;;20.33;4.72;;;;;;;;;;4907072;29;20051;-59
2021/05/16 09:53:12;;;;;;;18.73;5.60;;;;;;;;;;4909417;29;20055;-60
2021/05/16 09:55:39;;;;;;;23.58;5.03;;;;;;;;;;4918458;29;20127;-59
2021/05/16 09:58:04;;;;;;;20.70;5.18;;;;;;;;;;4929059;29;20051;-58
2021/05/16 10:00:31;;;;;;;19.67;4.35;;;;;;;;;;4920119;29;20057;-59
2021/05/16 10:02:58;;;;;;;14.55;3.78;;;;;;;;;;4922760;29;20043;-60
2021/05/16 10:05:24;;;;;;;19.35;2.90;;;;;;;;;;4929692;28;20043;-52
2021/05/16 10:07:51;;;;;;;18.20;3.72;;;;;;;;;;4947411;28;20042;-61
2021/05/16 10:10:17;;;;;;;17.88;3.80;;;;;;;;;;4943922;28;20039;-61
2021/05/16 10:12:43;;;;;;;16.52;3.10;;;;;;;;;;4948832;28;20213;-61
2021/05/16 10:15:13;;;;;;;20.77;3.10;;;;;;;;;;4947840;28;20057;-69
2021/05/16 10:17:41;;;;;;;17.95;3.03;;;;;;;;;;4909379;29;20044;-62
2021/05/16 10:20:09;;;;;;;14.77;2.70;;;;;;;;;;4913214;29;20048;-69
2021/05/16 10:22:41;;;;;;;13.90;2.80;;;;;;;;;;4958214;28;20030;-59
2021/05/16 10:25:08;;;;;;;13.10;2.60;;;;;;;;;;4946570;28;20122;-61
2021/05/16 10:27:41;;;;;;;13.30;2.42;;;;;;;;;;4958659;28;20074;-59
2021/05/16 10:30:09;;;;;;;15.27;2.88;;;;;;;;;;4965832;28;20050;-60
2021/05/16 10:32:48;;;;;;;17.38;3.30;;;;;;;;;;4949393;28;20094;-59
2021/05/16 10:35:15;;;;;;;9.68;2.55;;;;;;;;;;4943472;29;20047;-59
2021/05/16 10:37:42;;;;;;;11.57;2.20;;;;;;;;;;4976100;28;20038;-59
2021/05/16 10:40:29;;;;;;;11.90;2.28;;;;;;;;;;4947529;28;20040;-58
2021/05/16 10:42:55;;;;;;;15.63;2.50;;;;;;;;;;4925342;29;20028;-65
2021/05/16 10:45:22;;;;;;;18.30;3.00;;;;;;;;;;4929813;29;20126;-59
2021/05/16 10:47:56;;;;;;;14.50;3.63;;;;;;;;;;4937974;28;20118;-60
2021/05/16 10:50:56;;;;;;;12.45;3.08;;;;;;;;;;4950007;28;20063;-56
2021/05/16 10:53:27;;;;;;;16.95;2.63;;;;;;;;;;4945026;28;20035;-54
2021/05/16 10:56:04;;;;;;;13.95;2.53;;;;;;;;;;4949657;28;20117;-57
2021/05/16 10:58:48;;;;;;;17.92;2.67;;;;;;;;;;4939183;28;20039;-54
2021/05/16 11:01:15;;;;;;;16.58;2.58;;;;;;;;;;4930048;29;20122;-59
2021/05/16 11:03:43;;;;;;;11.50;2.45;;;;;;;;;;4914850;29;20123;-51
2021/05/16 11:06:09;;;;;;;11.32;2.55;;;;;;;;;;4911236;29;20032;-54
2021/05/16 11:09:00;;;;;;;12.75;2.80;;;;;;;;;;4907709;29;20047;-59
2021/05/16 11:11:27;;;;;;;12.07;2.72;;;;;;;;;;4896307;29;20092;-54
2021/05/16 11:13:57;;;;;;;12.15;2.60;;;;;;;;;;4898046;29;20042;-60
2021/05/16 11:16:23;;;;;;;10.68;2.28;;;;;;;;;;4909912;29;20105;-58
2021/05/16 11:18:49;;;;;;;16.83;2.10;;;;;;;;;;4907766;29;20040;-59
2021/05/16 11:21:15;;;;;;;14.88;2.78;;;;;;;;;;4912443;29;20050;-59
2021/05/16 11:23:49;;;;;;;10.18;2.08;;;;;;;;;;4908603;29;20044;-59
2021/05/16 11:26:16;;;;;;;22.15;3.75;;;;;;;;;;4908788;29;20072;-59
2021/05/16 11:28:52;;;;;;;12.23;3.47;;;;;;;;;;4911453;29;20047;-60
2021/05/16 11:31:20;;;;;;;14.98;2.72;;;;;;;;;;4946780;29;20044;-60
2021/05/16 11:34:00;;;;;;;14.00;2.40;;;;;;;;;;4923791;29;20055;-61
2021/05/16 11:36:27;;;;;;;12.85;2.40;;;;;;;;;;4913479;29;20334;-58
2021/05/16 11:38:54;;;;;;;14.32;2.50;;;;;;;;;;4930548;29;20039;-67
2021/05/16 11:41:24;;;;;;;8.07;1.60;;;;;;;;;;4920958;29;20099;-63
2021/05/16 11:43:54;;;;;;;7.28;1.85;;;;;;;;;;4910496;29;20086;-62
2021/05/16 11:46:24;;;;;;;11.85;1.95;;;;;;;;;;4894616;29;20059;-64
2021/05/16 11:48:49;;;;;;;8.55;1.70;;;;;;;;;;4894229;29;20048;-56
2021/05/16 11:51:17;;;;;;;7.65;1.60;;;;;;;;;;4910072;29;20147;-56
2021/05/16 11:53:45;;;;;;;8.55;1.60;;;;;;;;;;4898197;29;20063;-66
2021/05/16 11:56:13;;;;;;;10.50;1.88;;;;;;;;;;4895570;29;20044;-64
2021/05/16 11:58:45;;;;;;;10.52;1.50;;;;;;;;;;4894934;29;20055;-70
2021/05/16 12:01:12;;;;;;;8.40;1.90;;;;;;;;;;4918359;29;20035;-68
2021/05/16 12:03:50;;;;;;;7.95;1.83;;;;;;;;;;4932022;29;20035;-69
2021/05/16 12:06:16;;;;;;;6.13;1.70;;;;;;;;;;4915375;29;20040;-69
2021/05/16 12:08:42;;;;;;;9.43;1.65;;;;;;;;;;4935330;29;20042;-67
2021/05/16 12:11:09;;;;;;;7.85;1.45;;;;;;;;;;4939020;29;20032;-68
2021/05/16 12:13:40;;;;;;;9.10;1.52;;;;;;;;;;4937382;29;20053;-70
2021/05/16 12:16:20;;;;;;;9.20;2.22;;;;;;;;;;4919683;29;20052;-73
2021/05/16 12:18:46;;;;;;;9.77;1.60;;;;;;;;;;4928994;29;20036;-59
2021/05/16 12:21:13;;;;;;;6.28;1.17;;;;;;;;;;4927036;29;20035;-58
2021/05/16 12:23:40;;;;;;;10.40;1.52;;;;;;;;;;4911957;29;20064;-59
2021/05/16 12:26:06;;;;;;;11.23;1.45;;;;;;;;;;4906596;29;20043;-59
2021/05/16 12:28:34;;;;;;;7.50;1.40;;;;;;;;;;4912600;29;20044;-62
2021/05/16 12:31:00;;;;;;;8.32;1.75;;;;;;;;;;4912916;29;20105;-59
2021/05/16 12:33:36;;;;;;;5.18;1.55;;;;;;;;;;4925693;29;20043;-59
2021/05/16 12:36:02;;;;;;;12.05;2.38;;;;;;;;;;4908322;29;20051;-61
2021/05/16 12:38:40;;;;;;;7.90;1.80;;;;;;;;;;4914202;29;20060;-60
2021/05/16 12:41:16;;;;;;;11.70;2.00;;;;;;;;;;4907250;29;20044;-63
2021/05/16 12:43:44;;;;;;;11.95;1.63;;;;;;;;;;4893839;29;20294;-60
2021/05/16 12:46:10;;;;;;;7.53;1.92;;;;;;;;;;4900272;28;20050;-61
2021/05/16 12:48:40;;;;;;;7.82;1.38;;;;;;;;;;4926285;29;20172;-60
2021/05/16 12:51:07;;;;;;;5.40;1.17;;;;;;;;;;4929875;29;20040;-60
2021/05/16 12:53:35;;;;;;;6.65;1.33;;;;;;;;;;4928126;29;20043;-62
2021/05/16 12:56:12;;;;;;;8.43;1.50;;;;;;;;;;4929724;29;20028;-61
2021/05/16 12:58:41;;;;;;;5.57;1.30;;;;;;;;;;4927657;29;20059;-61
2021/05/16 13:01:07;;;;;;;6.85;1.10;;;;;;;;;;4931489;29;20055;-62
2021/05/16 13:03:34;;;;;;;11.73;1.10;;;;;;;;;;4917974;29;20036;-58
2021/05/16 13:06:01;;;;;;;6.65;1.23;;;;;;;;;;4912946;29;20059;-59
2021/05/16 13:08:31;;;;;;;5.78;1.00;;;;;;;;;;4904640;29;20131;-64
2021/05/16 13:10:58;;;;;;;7.80;0.80;;;;;;;;;;4905118;29;20173;-60
2021/05/16 13:13:31;;;;;;;8.75;0.95;;;;;;;;;;4914369;29;20036;-60
2021/05/16 13:16:01;;;;;;;1.67;0.77;;;;;;;;;;4926348;29;20040;-60
2021/05/16 13:18:29;;;;;;;4.75;0.80;;;;;;;;;;4906605;29;20028;-64
2021/05/16 13:20:56;;;;;;;2.58;0.77;;;;;;;;;;4907359;29;20059;-59
2021/05/16 13:23:26;;;;;;;3.70;1.00;;;;;;;;;;4903876;29;20909;-61
2021/05/16 13:25:53;;;;;;;3.38;0.93;;;;;;;;;;4903828;29;20036;-62
2021/05/16 13:28:20;;;;;;;5.40;1.05;;;;;;;;;;4903570;29;20051;-64
2021/05/16 13:30:52;;;;;;;5.75;1.40;;;;;;;;;;4904672;29;20055;-61
2021/05/16 13:33:31;;;;;;;2.67;0.85;;;;;;;;;;4906015;29;20079;-66
2021/05/16 13:35:57;;;;;;;2.42;0.85;;;;;;;;;;4905575;29;20046;-63
2021/05/16 13:38:23;;;;;;;4.38;1.30;;;;;;;;;;4908785;29;20040;-63
2021/05/16 13:40:50;;;;;;;4.15;1.10;;;;;;;;;;4923843;29;20044;-64
2021/05/16 13:43:19;;;;;;;4.63;1.20;;;;;;;;;;4908155;29;20099;-63
2021/05/16 13:45:45;;;;;;;2.50;0.73;;;;;;;;;;4924863;29;20032;-66
2021/05/16 13:48:11;;;;;;;4.45;1.25;;;;;;;;;;4913438;29;20032;-64
2021/05/16 13:50:38;;;;;;;2.78;1.02;;;;;;;;;;4907276;29;20144;-61
2021/05/16 13:53:07;;;;;;;4.78;1.08;;;;;;;;;;4906922;29;20051;-62
2021/05/16 13:55:33;;;;;;;4.18;1.15;;;;;;;;;;4904551;29;20080;-66
2021/05/16 13:58:02;;;;;;;3.53;1.10;;;;;;;;;;4907601;29;20036;-65
2021/05/16 14:00:29;;;;;;;4.63;1.58;;;;;;;;;;4903575;29;20035;-62
2021/05/16 14:02:56;;;;;;;11.15;3.35;;;;;;;;;;4923959;29;20055;-59
2021/05/16 14:05:22;;;;;;;5.88;1.65;;;;;;;;;;4922250;29;20040;-60
2021/05/16 14:07:48;;;;;;;3.67;1.30;;;;;;;;;;4907265;29;20050;-64
2021/05/16 14:10:14;;;;;;;4.78;1.83;;;;;;;;;;4919815;29;20080;-61
2021/05/16 14:12:41;;;;;;;3.33;1.30;;;;;;;;;;4909008;29;20151;-62
2021/05/16 14:15:09;;;;;;;2.65;1.15;;;;;;;;;;4916036;29;20040;-61
2021/05/16 14:17:35;;;;;;;4.20;1.45;;;;;;;;;;4908946;29;20092;-60
2021/05/16 14:20:01;;;;;;;4.72;1.48;;;;;;;;;;4905946;29;20055;-62
2021/05/16 14:22:40;;;;;;;2.53;0.93;;;;;;;;;;4903958;29;20055;-63
2021/05/16 14:25:07;;;;;;;4.57;1.63;;;;;;;;;;4903782;29;20040;-62
2021/05/16 14:27:33;;;;;;;3.35;1.10;;;;;;;;;;4903543;29;20107;-63
2021/05/16 14:29:59;;;;;;;4.18;1.50;;;;;;;;;;4907866;29;20115;-63
2021/05/16 14:32:28;;;;;;;5.45;1.73;;;;;;;;;;4904810;29;20056;-63
2021/05/16 14:34:54;;;;;;;3.58;1.25;;;;;;;;;;4922354;29;20041;-64
2021/05/16 14:37:20;;;;;;;5.88;1.00;;;;;;;;;;4899520;29;20032;-60
2021/05/16 14:39:46;;;;;;;3.80;1.05;;;;;;;;;;4908559;29;20059;-62